Time;durP1;ratioP1;P1;durP2;ratioP2;P2;SDS_P1;SDS_P2;PMS_P1;PMS_P2;Temp;Humidity;BMP_temperature;BMP_pressure;BME280_temperature;BME280_humidity;BME280_pressure;Samples;Min_cycle;Max_cycle;Signal;HPM_P1;HPM_P2
2021/10/03 00:00:41;;;;;;;2.75;0.50;;;16.30;99.90;;;;;;20539313;28;20070;-82
2021/10/03 00:10:42;;;;;;;1.45;0.47;;;16.30;99.90;;;;;;20534217;28;20097;-82
2021/10/03 00:20:44;;;;;;;1.42;0.60;;;16.30;99.90;;;;;;20532480;28;20034;-82
2021/10/03 00:30:45;;;;;;;2.40;0.93;;;16.40;99.90;;;;;;20535313;28;20054;-82
2021/10/03 00:40:47;;;;;;;0.88;0.50;;;16.40;99.90;;;;;;20525547;28;20047;-82
2021/10/03 00:50:49;;;;;;;1.35;0.68;;;16.30;99.90;;;;;;20510258;28;20055;-82
2021/10/03 01:00:51;;;;;;;1.27;0.80;;;16.40;99.90;;;;;;20472320;28;20110;-83
2021/10/03 01:10:52;;;;;;;1.40;0.60;;;16.40;99.90;;;;;;20516992;28;20050;-83
2021/10/03 01:20:53;;;;;;;1.92;0.93;;;16.40;99.90;;;;;;20524379;28;20058;-83
2021/10/03 01:30:55;;;;;;;0.82;0.32;;;16.30;99.90;;;;;;20472776;28;20375;-83
2021/10/03 01:40:56;;;;;;;1.52;0.40;;;16.20;99.90;;;;;;20475081;28;20534;-83
2021/10/03 01:51:01;;;;;;;0.57;0.28;;;16.00;99.90;;;;;;20473218;28;20044;-82
2021/10/03 02:01:10;;;;;;;1.40;0.55;;;15.90;99.90;;;;;;20518306;28;20043;-82
2021/10/03 02:11:11;;;;;;;0.43;0.20;;;15.80;99.90;;;;;;20486447;28;20149;-83
2021/10/03 02:21:14;;;;;;;1.20;0.28;;;15.60;99.90;;;;;;20507833;28;20137;-83
2021/10/03 02:41:27;;;;;;;0.57;0.28;;;14.70;99.90;;;;;;20870147;23;20494;-84
2021/10/03 02:51:29;;;;;;;0.50;0.10;;;14.10;99.90;;;;;;20475089;28;20038;-84
2021/10/03 03:01:31;;;;;;;1.48;0.28;;;14.00;99.90;;;;;;20538275;28;20384;-85
2021/10/03 03:11:32;;;;;;;2.47;0.63;;;13.90;99.90;;;;;;20521666;28;20035;-85
2021/10/03 03:21:33;;;;;;;1.88;0.20;;;14.00;99.90;;;;;;20555250;28;20043;-85
2021/10/03 03:31:34;;;;;;;2.30;0.20;;;14.00;99.90;;;;;;20517118;28;20051;-85
2021/10/03 03:41:35;;;;;;;3.42;0.30;;;14.10;99.90;;;;;;20397006;28;20829;-85
2021/10/03 03:51:36;;;;;;;2.00;0.30;;;14.20;99.90;;;;;;20430391;28;20028;-84
2021/10/03 04:01:38;;;;;;;0.65;0.55;;;14.10;99.90;;;;;;20408493;28;20044;-84
2021/10/03 04:11:39;;;;;;;1.75;0.38;;;14.10;99.90;;;;;;20462133;28;20039;-84
2021/10/03 04:21:40;;;;;;;0.80;0.22;;;14.10;99.90;;;;;;20505364;28;20039;-85
2021/10/03 04:31:41;;;;;;;3.72;0.38;;;14.10;99.90;;;;;;20492935;28;20383;-85
2021/10/03 04:41:43;;;;;;;0.47;0.30;;;14.00;99.90;;;;;;20399576;28;20355;-84
2021/10/03 04:51:44;;;;;;;0.57;0.10;;;14.00;99.90;;;;;;20370585;28;20039;-84
2021/10/03 05:01:45;;;;;;;4.10;0.30;;;13.70;99.90;;;;;;20341994;28;20055;-85
2021/10/03 05:11:46;;;;;;;1.75;0.13;;;13.40;99.90;;;;;;20375121;28;20128;-83
2021/10/03 05:21:47;;;;;;;0.55;0.25;;;13.40;99.90;;;;;;20366659;28;20056;-84
2021/10/03 05:31:49;;;;;;;1.15;0.20;;;13.30;99.90;;;;;;20389789;28;22037;-84
2021/10/03 05:41:50;;;;;;;1.02;0.20;;;13.20;99.90;;;;;;20435674;28;20046;-84
2021/10/03 05:51:51;;;;;;;1.45;0.43;;;13.20;99.90;;;;;;20427611;28;20055;-84
2021/10/03 06:01:52;;;;;;;0.40;0.13;;;13.20;99.90;;;;;;20424057;28;20413;-84
2021/10/03 06:11:53;;;;;;;0.30;0.15;;;13.10;99.90;;;;;;20411308;28;20058;-84
2021/10/03 06:21:54;;;;;;;3.67;0.15;;;13.00;99.90;;;;;;20396618;28;20047;-84
2021/10/03 06:31:55;;;;;;;0.52;0.25;;;13.00;99.90;;;;;;20411430;28;20186;-85
2021/10/03 06:41:57;;;;;;;0.50;0.15;;;12.80;99.90;;;;;;20402103;28;20047;-87
2021/10/03 06:51:58;;;;;;;2.33;0.13;;;12.80;99.90;;;;;;20336891;28;20047;-84
2021/10/03 07:02:02;;;;;;;0.70;0.32;;;12.70;99.90;;;;;;20367944;28;20056;-85
2021/10/03 07:12:04;;;;;;;2.53;1.13;;;12.80;99.90;;;;;;20435977;28;20040;-85
2021/10/03 07:22:05;;;;;;;0.22;0.10;;;12.70;99.90;;;;;;20367142;28;20054;-84
2021/10/03 07:32:07;;;;;;;0.30;0.10;;;12.60;99.90;;;;;;20329622;28;20078;-86
2021/10/03 07:42:08;;;;;;;1.05;0.50;;;12.70;99.90;;;;;;20330712;28;20067;-86
2021/10/03 07:52:09;;;;;;;1.42;0.40;;;12.70;99.90;;;;;;20383364;28;20044;-86
2021/10/03 08:02:10;;;;;;;0.40;0.10;;;12.70;99.90;;;;;;20332139;28;20062;-87
2021/10/03 08:12:11;;;;;;;1.05;0.20;;;12.60;99.90;;;;;;20341315;28;20040;-86
2021/10/03 08:22:12;;;;;;;0.77;0.30;;;12.80;99.90;;;;;;20382949;28;20047;-86
2021/10/03 08:32:17;;;;;;;2.83;0.73;;;12.90;99.90;;;;;;20384113;28;20078;-87
2021/10/03 08:42:19;;;;;;;0.40;0.10;;;12.80;99.90;;;;;;20335879;28;20052;-85
2021/10/03 08:52:25;;;;;;;2.60;0.30;;;12.80;99.90;;;;;;20311995;28;20602;-85
2021/10/03 09:02:26;;;;;;;0.55;0.10;;;12.80;99.90;;;;;;20379564;28;20047;-84
2021/10/03 09:12:38;;;;;;;0.10;0.10;;;12.90;99.90;;;;;;20282551;28;20040;-86
2021/10/03 09:23:14;;;;;;;0.98;0.57;;;13.00;99.90;;;;;;20374955;28;20085;-86
2021/10/03 09:33:15;;;;;;;3.10;1.20;;;13.00;99.90;;;;;;20405136;28;20073;-88
2021/10/03 09:43:16;;;;;;;1.58;0.25;;;13.10;99.90;;;;;;20363188;28;20871;-85
2021/10/03 09:53:20;;;;;;;1.23;0.30;;;13.10;99.90;;;;;;20320976;28;20447;-84
2021/10/03 10:03:22;;;;;;;2.72;1.00;;;13.10;99.90;;;;;;20394538;28;20118;-85
2021/10/03 10:13:25;;;;;;;1.30;0.30;;;13.20;99.90;;;;;;20362140;28;20034;-85
2021/10/03 10:23:29;;;;;;;1.05;0.50;;;13.40;99.90;;;;;;20347926;28;20035;-84
2021/10/03 10:33:53;;;;;;;1.38;0.50;;;13.40;99.90;;;;;;20351867;28;20043;-84
2021/10/03 10:43:54;;;;;;;2.53;1.10;;;13.40;99.90;;;;;;20432890;28;20410;-85
2021/10/03 10:54:13;;;;;;;3.00;1.02;;;13.50;99.90;;;;;;20406402;28;20048;-85
2021/10/03 11:04:21;;;;;;;5.07;3.08;;;13.30;99.90;;;;;;20427363;28;20051;-87
2021/10/03 11:14:25;;;;;;;2.95;1.10;;;13.40;99.90;;;;;;20335310;28;20040;-86
2021/10/03 11:24:39;;;;;;;1.30;0.40;;;13.40;99.90;;;;;;20367422;28;20048;-86
2021/10/03 11:34:44;;;;;;;3.78;0.82;;;13.40;99.90;;;;;;20400789;28;20408;-85
2021/10/03 11:44:46;;;;;;;2.10;0.70;;;13.50;99.90;;;;;;20420553;28;20602;-85
2021/10/03 11:54:48;;;;;;;1.05;0.40;;;13.40;99.90;;;;;;20383144;28;20043;-83
2021/10/03 12:04:54;;;;;;;0.35;0.35;;;13.00;99.90;;;;;;20449120;28;20062;-85
2021/10/03 12:14:55;;;;;;;0.45;0.20;;;12.80;99.90;;;;;;20408467;28;20051;-85
2021/10/03 12:24:56;;;;;;;2.47;0.22;;;12.60;99.90;;;;;;20420441;28;20086;-86
2021/10/03 12:35:02;;;;;;;0.73;0.47;;;12.50;99.90;;;;;;20416259;28;20052;-86
2021/10/03 12:45:04;;;;;;;0.50;0.20;;;12.50;99.90;;;;;;20424201;28;20749;-85
2021/10/03 12:55:06;;;;;;;0.10;0.10;;;12.70;99.90;;;;;;20498318;28;20025;-85
2021/10/03 13:05:08;;;;;;;1.45;0.10;;;12.50;99.90;;;;;;20484818;28;20050;-85
2021/10/03 13:15:10;;;;;;;0.45;0.25;;;12.40;99.90;;;;;;20451218;28;20050;-85
2021/10/03 13:25:11;;;;;;;2.33;0.30;;;12.40;99.90;;;;;;20446648;28;20697;-85
2021/10/03 13:35:12;;;;;;;0.38;0.20;;;12.60;99.90;;;;;;20385248;28;20050;-83
2021/10/03 13:45:14;;;;;;;0.70;0.10;;;12.70;99.90;;;;;;20370773;28;20051;-84
2021/10/03 13:55:15;;;;;;;0.85;0.40;;;12.70;99.90;;;;;;20353397;28;20396;-85
2021/10/03 14:05:17;;;;;;;2.70;0.22;;;12.70;99.90;;;;;;20354577;28;20046;-84
2021/10/03 14:15:18;;;;;;;1.48;0.50;;;12.70;99.90;;;;;;20366938;28;20038;-85
2021/10/03 14:25:19;;;;;;;1.10;0.25;;;12.60;99.90;;;;;;20391264;28;20055;-84
2021/10/03 14:35:21;;;;;;;16.27;0.82;;;12.70;99.90;;;;;;20381258;28;20372;-84
2021/10/03 14:45:23;;;;;;;2.80;0.45;;;13.10;99.90;;;;;;20366200;28;20063;-85
2021/10/03 14:55:26;;;;;;;2.28;0.40;;;13.30;99.90;;;;;;20364625;28;20443;-85
2021/10/03 15:05:27;;;;;;;0.73;0.25;;;13.30;99.90;;;;;;20384099;28;20264;-84
2021/10/03 15:15:29;;;;;;;0.43;0.13;;;13.10;99.90;;;;;;20424104;28;20035;-83
2021/10/03 15:25:30;;;;;;;3.03;0.32;;;13.10;99.90;;;;;;20377982;28;20040;-84
2021/10/03 15:35:31;;;;;;;3.47;0.40;;;13.10;99.90;;;;;;20361632;28;20050;-84
2021/10/03 15:45:32;;;;;;;0.55;0.43;;;13.10;99.90;;;;;;20345509;28;20051;-83
2021/10/03 15:55:34;;;;;;;0.52;0.32;;;13.10;99.90;;;;;;20369496;28;20081;-82
2021/10/03 16:05:35;;;;;;;0.80;0.30;;;13.30;99.90;;;;;;20464185;28;20528;-83
2021/10/03 16:15:37;;;;;;;1.52;0.30;;;13.30;99.90;;;;;;20486787;28;20029;-83
2021/10/03 16:25:38;;;;;;;1.42;0.30;;;13.20;99.90;;;;;;20420281;28;20513;-84
2021/10/03 16:35:39;;;;;;;0.40;0.17;;;13.10;99.90;;;;;;20453134;28;20049;-83
2021/10/03 16:45:43;;;;;;;6.32;0.52;;;13.00;99.90;;;;;;20423882;28;20110;-84
2021/10/03 16:55:44;;;;;;;0.60;0.20;;;12.80;99.90;;;;;;20454812;28;20039;-83
2021/10/03 17:05:46;;;;;;;3.22;0.60;;;12.80;99.90;;;;;;20448399;28;20067;-83
2021/10/03 17:15:47;;;;;;;1.40;0.50;;;12.70;99.90;;;;;;20526662;28;20583;-83
2021/10/03 17:25:48;;;;;;;4.43;1.55;;;12.70;99.90;;;;;;20488176;28;20058;-84
2021/10/03 17:35:49;;;;;;;2.55;0.93;;;12.60;99.90;;;;;;20441677;28;20047;-84
2021/10/03 17:45:51;;;;;;;1.73;0.80;;;12.50;99.90;;;;;;20490691;28;20053;-84
2021/10/03 17:55:52;;;;;;;2.72;0.77;;;12.40;99.90;;;;;;20482324;28;20062;-84
2021/10/03 18:05:53;;;;;;;2.45;1.05;;;12.40;99.90;;;;;;20472827;28;20396;-83
2021/10/03 18:15:54;;;;;;;2.55;0.98;;;12.30;99.90;;;;;;20404447;28;20154;-83
2021/10/03 18:25:56;;;;;;;3.47;1.17;;;12.40;99.90;;;;;;20476164;28;20830;-83
2021/10/03 18:35:57;;;;;;;5.40;2.05;;;12.20;99.90;;;;;;20473812;28;20042;-82
2021/10/03 18:45:58;;;;;;;6.85;1.65;;;12.10;99.90;;;;;;20466693;28;20116;-83
2021/10/03 18:56:00;;;;;;;4.10;1.65;;;12.10;99.90;;;;;;20485509;28;20066;-83
2021/10/03 19:06:01;;;;;;;3.75;1.45;;;12.20;99.90;;;;;;20434833;28;20056;-83
2021/10/03 19:16:03;;;;;;;2.25;0.88;;;12.10;99.90;;;;;;20474035;28;20064;-83
2021/10/03 19:26:06;;;;;;;3.00;1.40;;;12.10;99.90;;;;;;20450323;28;20070;-84
2021/10/03 19:36:07;;;;;;;3.60;1.52;;;12.10;99.90;;;;;;20430675;28;20074;-83
2021/10/03 19:46:11;;;;;;;3.33;1.40;;;12.10;99.90;;;;;;20461168;28;20582;-84
2021/10/03 19:56:15;;;;;;;4.57;1.65;;;12.10;99.90;;;;;;20445697;28;20121;-84
2021/10/03 20:06:17;;;;;;;6.43;1.77;;;12.20;99.90;;;;;;20467183;28;20074;-84
2021/10/03 20:16:18;;;;;;;2.22;1.27;;;12.10;99.90;;;;;;20397462;28;20143;-83
2021/10/03 20:26:20;;;;;;;4.10;1.40;;;12.10;99.90;;;;;;20367252;28;20052;-84
2021/10/03 20:36:21;;;;;;;2.05;0.77;;;12.20;99.90;;;;;;20409508;28;20050;-84
2021/10/03 20:46:26;;;;;;;4.20;1.50;;;12.20;99.90;;;;;;20419195;28;20055;-84
2021/10/03 20:56:27;;;;;;;1.45;0.65;;;12.20;99.90;;;;;;20454105;28;20523;-84
2021/10/03 21:06:28;;;;;;;1.75;0.50;;;12.40;99.90;;;;;;20422204;28;20137;-85
2021/10/03 21:16:30;;;;;;;1.38;0.45;;;12.40;99.90;;;;;;20375487;28;20166;-84
2021/10/03 21:26:31;;;;;;;7.05;1.48;;;12.40;99.90;;;;;;20437663;28;20079;-83
2021/10/03 21:36:32;;;;;;;1.95;0.45;;;12.50;99.90;;;;;;20428502;28;20046;-85
2021/10/03 21:46:34;;;;;;;2.05;0.55;;;12.40;99.90;;;;;;20374280;28;20047;-84
2021/10/03 21:56:35;;;;;;;1.88;0.70;;;12.40;99.90;;;;;;20347709;28;20050;-84
2021/10/03 22:06:36;;;;;;;4.03;0.32;;;12.40;99.90;;;;;;20386468;28;20407;-84
2021/10/03 22:16:38;;;;;;;2.03;0.50;;;12.40;99.90;;;;;;20376816;28;20058;-84
2021/10/03 22:26:39;;;;;;;2.10;0.52;;;12.40;99.90;;;;;;20402887;28;20057;-85
2021/10/03 22:36:40;;;;;;;1.13;0.38;;;12.40;99.90;;;;;;20392528;28;20599;-84
2021/10/03 22:46:42;;;;;;;1.50;0.63;;;12.40;99.90;;;;;;20340396;28;20502;-84
2021/10/03 22:56:43;;;;;;;0.90;0.40;;;12.30;99.90;;;;;;20366752;28;20032;-84
2021/10/03 23:06:49;;;;;;;3.35;0.75;;;12.30;99.90;;;;;;20367409;28;20047;-84
2021/10/03 23:16:51;;;;;;;0.57;0.32;;;12.20;99.90;;;;;;20386620;28;20123;-84
2021/10/03 23:26:52;;;;;;;0.65;0.20;;;12.30;99.90;;;;;;20399492;28;20063;-85
2021/10/03 23:36:53;;;;;;;0.82;0.30;;;12.30;99.90;;;;;;20403473;28;20154;-85
2021/10/03 23:46:54;;;;;;;1.73;0.35;;;12.40;99.90;;;;;;20390301;28;20539;-84
2021/10/03 23:56:55;;;;;;;1.17;0.35;;;12.40;99.90;;;;;;20418826;28;20035;-84
